Milford, MA (01757)

05:03 PM EDT die 27o July, anno 2016 (GMT -0400)
Lucia and Clarridge Cir. | | Change Station

Elev 357 ft 42.17 °N, 71.53 °W | Updated 4 seconds ago

Partly Cloudy
Partialiter Nubila
93.7 °F
Feels Like 97 °F
N
2.0
Ventus Variabilis Ventus from Inter Austrum et Zephyrum
Gusts 2.0 mph

Hodie
High -- | Low -- °F
--% Chance of Precip.
Yesterday
High -- | Low -- °F
Precip. -- in
Pressio 29.89 in
Visibilitas 10.0 milia passuum
Clouds Few 7500 ft
Index Caloris 97 °F
Frigus in quo Ros apparet 66 °F
Umor 41%
Rainfall 0.00 in
Snow Depth Not available.
5:34 AM 8:09 PM
Last Quarter, 39% visible
METAR KSFZ 272055Z AUTO 25004KT 10SM FEW075 32/14 A2989 RMK AO1 57010
Pressio 29.89 in
Visibilitas 10.0 milia passuum
Clouds Few 7500 ft
Index Caloris 97 °F
Frigus in quo Ros apparet 66 °F
Umor 41%
Rainfall 0.00 in
Snow Depth Not available.
5:34 AM 8:09 PM
Last Quarter, 39% visible
METAR KSFZ 272055Z AUTO 25004KT 10SM FEW075 32/14 A2989 RMK AO1 57010

10-Day Weather Forecast

Almanac

Astronomy

Jul. 27, 2016 Rise Set
Actual Time
Civil Twilight
Nautical Twilight
Astronomical Twilight
Moon
Length Of Visible Light
Length of Day
Tomorrow will be .
, % of the Moon is Illuminated

Today's Extremes

State Highs State Lows

Community

WunderPhotos

Upload Photos

1,927,936 photos uploaded!

WunderBlog® & News

Nearby

Air Quality

  Air Quality AQ Index Pollutant
Not available.

Snow Depth

Station Depth Elevation

Earthquake Activity

City Distance Mag. Time & Date
Minimum magnitude displayed is 2.5.

Coastal Water Temperatures

Locus Calor

Stations

Nearby Weather Stations

Station Location Temp Frigus Venti Frigus in quo Ros apparet Umor Ventus Precip. Elev Renovata Type
                   

Watches & Warnings

There are currently no watches in effect.